sensor_id;sensor_type;location;lat;lon;timestamp;P1;durP1;ratioP1;P2;durP2;ratioP2
78336;SDS011;67610;51.588;7.002;2023-03-01T00:01:09;7.45;;;4.38;;
78336;SDS011;67610;51.588;7.002;2023-03-01T00:03:37;7.40;;;4.03;;
78336;SDS011;67610;51.588;7.002;2023-03-01T00:06:03;6.72;;;3.92;;
78336;SDS011;67610;51.588;7.002;2023-03-01T00:08:30;6.13;;;4.05;;
78336;SDS011;67610;51.588;7.002;2023-03-01T00:11:15;8.32;;;4.90;;
78336;SDS011;67610;51.588;7.002;2023-03-01T00:13:47;7.93;;;4.05;;
78336;SDS011;67610;51.588;7.002;2023-03-01T00:16:15;7.05;;;4.28;;
78336;SDS011;67610;51.588;7.002;2023-03-01T00:18:42;6.72;;;4.18;;
78336;SDS011;67610;51.588;7.002;2023-03-01T00:21:08;5.45;;;3.58;;
78336;SDS011;67610;51.588;7.002;2023-03-01T00:23:34;6.90;;;3.97;;
78336;SDS011;67610;51.588;7.002;2023-03-01T00:26:00;6.68;;;3.90;;
78336;SDS011;67610;51.588;7.002;2023-03-01T00:28:25;5.43;;;4.15;;
78336;SDS011;67610;51.588;7.002;2023-03-01T00:30:51;9.63;;;3.80;;
78336;SDS011;67610;51.588;7.002;2023-03-01T00:33:16;8.10;;;4.50;;
78336;SDS011;67610;51.588;7.002;2023-03-01T00:35:42;6.20;;;4.07;;
78336;SDS011;67610;51.588;7.002;2023-03-01T00:38:08;8.00;;;3.97;;
78336;SDS011;67610;51.588;7.002;2023-03-01T00:40:34;9.02;;;4.30;;
78336;SDS011;67610;51.588;7.002;2023-03-01T00:43:00;8.48;;;3.90;;
78336;SDS011;67610;51.588;7.002;2023-03-01T00:45:26;9.52;;;4.40;;
78336;SDS011;67610;51.588;7.002;2023-03-01T00:47:51;8.70;;;4.28;;
78336;SDS011;67610;51.588;7.002;2023-03-01T00:50:18;6.75;;;3.78;;
78336;SDS011;67610;51.588;7.002;2023-03-01T00:52:44;7.43;;;4.43;;
78336;SDS011;67610;51.588;7.002;2023-03-01T00:55:10;6.22;;;4.35;;
78336;SDS011;67610;51.588;7.002;2023-03-01T00:57:36;6.55;;;3.55;;
78336;SDS011;67610;51.588;7.002;2023-03-01T01:00:03;7.50;;;4.05;;
78336;SDS011;67610;51.588;7.002;2023-03-01T01:02:32;7.95;;;4.40;;
78336;SDS011;67610;51.588;7.002;2023-03-01T01:04:58;8.55;;;4.28;;
78336;SDS011;67610;51.588;7.002;2023-03-01T01:07:24;7.03;;;3.90;;
78336;SDS011;67610;51.588;7.002;2023-03-01T01:09:50;7.85;;;3.80;;
78336;SDS011;67610;51.588;7.002;2023-03-01T01:12:15;8.15;;;4.90;;
78336;SDS011;67610;51.588;7.002;2023-03-01T01:14:40;6.68;;;4.03;;
78336;SDS011;67610;51.588;7.002;2023-03-01T01:17:06;7.95;;;4.20;;
78336;SDS011;67610;51.588;7.002;2023-03-01T01:19:31;6.72;;;4.22;;
78336;SDS011;67610;51.588;7.002;2023-03-01T01:21:57;7.40;;;4.55;;
78336;SDS011;67610;51.588;7.002;2023-03-01T01:24:22;6.47;;;4.20;;
78336;SDS011;67610;51.588;7.002;2023-03-01T01:26:47;7.05;;;4.28;;
78336;SDS011;67610;51.588;7.002;2023-03-01T01:29:13;6.55;;;4.10;;
78336;SDS011;67610;51.588;7.002;2023-03-01T01:31:39;7.75;;;4.18;;
78336;SDS011;67610;51.588;7.002;2023-03-01T01:34:06;6.55;;;3.88;;
78336;SDS011;67610;51.588;7.002;2023-03-01T01:36:37;9.00;;;4.28;;
78336;SDS011;67610;51.588;7.002;2023-03-01T01:39:02;7.65;;;3.78;;
78336;SDS011;67610;51.588;7.002;2023-03-01T01:41:28;6.95;;;4.32;;
78336;SDS011;67610;51.588;7.002;2023-03-01T01:47:15;7.93;;;4.25;;
78336;SDS011;67610;51.588;7.002;2023-03-01T01:49:49;9.50;;;4.78;;
78336;SDS011;67610;51.588;7.002;2023-03-01T01:57:29;8.50;;;4.25;;
78336;SDS011;67610;51.588;7.002;2023-03-01T02:00:06;5.75;;;4.10;;
78336;SDS011;67610;51.588;7.002;2023-03-01T02:02:37;7.35;;;4.18;;
78336;SDS011;67610;51.588;7.002;2023-03-01T02:05:20;7.25;;;4.60;;
78336;SDS011;67610;51.588;7.002;2023-03-01T02:07:53;8.15;;;4.57;;
78336;SDS011;67610;51.588;7.002;2023-03-01T02:10:21;8.43;;;4.50;;
78336;SDS011;67610;51.588;7.002;2023-03-01T02:12:48;7.25;;;4.07;;
78336;SDS011;67610;51.588;7.002;2023-03-01T02:15:14;8.70;;;4.15;;
78336;SDS011;67610;51.588;7.002;2023-03-01T02:17:39;8.85;;;4.90;;
78336;SDS011;67610;51.588;7.002;2023-03-01T02:22:59;7.05;;;4.55;;
78336;SDS011;67610;51.588;7.002;2023-03-01T02:30:44;7.82;;;4.60;;
78336;SDS011;67610;51.588;7.002;2023-03-01T02:33:47;8.57;;;4.03;;
78336;SDS011;67610;51.588;7.002;2023-03-01T02:36:24;8.68;;;4.68;;
78336;SDS011;67610;51.588;7.002;2023-03-01T02:38:57;7.57;;;4.22;;
78336;SDS011;67610;51.588;7.002;2023-03-01T02:41:26;6.28;;;3.90;;
78336;SDS011;67610;51.588;7.002;2023-03-01T02:43:55;9.30;;;5.28;;
78336;SDS011;67610;51.588;7.002;2023-03-01T02:46:21;9.93;;;4.45;;
78336;SDS011;67610;51.588;7.002;2023-03-01T02:48:53;5.38;;;3.88;;
78336;SDS011;67610;51.588;7.002;2023-03-01T02:56:24;7.88;;;4.45;;
78336;SDS011;67610;51.588;7.002;2023-03-01T02:58:50;7.20;;;4.30;;
78336;SDS011;67610;51.588;7.002;2023-03-01T03:01:17;8.88;;;4.30;;
78336;SDS011;67610;51.588;7.002;2023-03-01T03:03:44;7.68;;;4.20;;
78336;SDS011;67610;51.588;7.002;2023-03-01T03:06:09;6.70;;;4.47;;
78336;SDS011;67610;51.588;7.002;2023-03-01T03:08:35;7.03;;;3.90;;
78336;SDS011;67610;51.588;7.002;2023-03-01T03:11:00;7.18;;;4.30;;
78336;SDS011;67610;51.588;7.002;2023-03-01T03:13:26;6.85;;;4.38;;
78336;SDS011;67610;51.588;7.002;2023-03-01T03:15:54;9.10;;;4.80;;
78336;SDS011;67610;51.588;7.002;2023-03-01T03:18:20;7.25;;;4.30;;
78336;SDS011;67610;51.588;7.002;2023-03-01T03:20:47;7.43;;;4.07;;
78336;SDS011;67610;51.588;7.002;2023-03-01T03:23:18;7.55;;;4.43;;
78336;SDS011;67610;51.588;7.002;2023-03-01T03:25:44;8.90;;;4.45;;
78336;SDS011;67610;51.588;7.002;2023-03-01T03:28:09;8.40;;;4.00;;
78336;SDS011;67610;51.588;7.002;2023-03-01T03:30:35;10.73;;;4.82;;
78336;SDS011;67610;51.588;7.002;2023-03-01T03:33:04;8.35;;;4.15;;
78336;SDS011;67610;51.588;7.002;2023-03-01T03:35:32;6.88;;;4.35;;
78336;SDS011;67610;51.588;7.002;2023-03-01T03:38:04;8.38;;;4.30;;
78336;SDS011;67610;51.588;7.002;2023-03-01T03:43:05;7.53;;;4.30;;
78336;SDS011;67610;51.588;7.002;2023-03-01T03:45:35;7.53;;;4.20;;
78336;SDS011;67610;51.588;7.002;2023-03-01T03:48:02;7.80;;;4.53;;
78336;SDS011;67610;51.588;7.002;2023-03-01T03:50:29;8.43;;;4.68;;
78336;SDS011;67610;51.588;7.002;2023-03-01T03:52:54;5.90;;;4.50;;
78336;SDS011;67610;51.588;7.002;2023-03-01T03:55:20;9.20;;;4.80;;
78336;SDS011;67610;51.588;7.002;2023-03-01T03:57:46;7.72;;;4.80;;
78336;SDS011;67610;51.588;7.002;2023-03-01T04:00:17;8.70;;;4.82;;
78336;SDS011;67610;51.588;7.002;2023-03-01T04:02:45;7.03;;;4.70;;
78336;SDS011;67610;51.588;7.002;2023-03-01T04:05:13;8.52;;;4.55;;
78336;SDS011;67610;51.588;7.002;2023-03-01T04:07:39;8.98;;;5.38;;
78336;SDS011;67610;51.588;7.002;2023-03-01T04:10:07;7.88;;;4.57;;
78336;SDS011;67610;51.588;7.002;2023-03-01T04:12:35;9.57;;;5.05;;
78336;SDS011;67610;51.588;7.002;2023-03-01T04:15:01;7.45;;;4.70;;
78336;SDS011;67610;51.588;7.002;2023-03-01T04:17:40;8.25;;;4.63;;
78336;SDS011;67610;51.588;7.002;2023-03-01T04:20:06;8.75;;;4.70;;
78336;SDS011;67610;51.588;7.002;2023-03-01T04:22:34;7.50;;;4.45;;
78336;SDS011;67610;51.588;7.002;2023-03-01T04:25:00;8.02;;;5.03;;
78336;SDS011;67610;51.588;7.002;2023-03-01T04:27:26;7.90;;;4.53;;
78336;SDS011;67610;51.588;7.002;2023-03-01T04:29:52;7.45;;;4.65;;
78336;SDS011;67610;51.588;7.002;2023-03-01T04:32:17;6.88;;;4.10;;
78336;SDS011;67610;51.588;7.002;2023-03-01T04:34:43;6.70;;;4.18;;
78336;SDS011;67610;51.588;7.002;2023-03-01T04:37:08;9.63;;;4.95;;
78336;SDS011;67610;51.588;7.002;2023-03-01T04:39:34;10.55;;;5.53;;
78336;SDS011;67610;51.588;7.002;2023-03-01T04:42:11;9.05;;;4.50;;
78336;SDS011;67610;51.588;7.002;2023-03-01T04:44:37;8.80;;;4.72;;
78336;SDS011;67610;51.588;7.002;2023-03-01T04:47:02;9.43;;;5.03;;
78336;SDS011;67610;51.588;7.002;2023-03-01T04:49:28;8.80;;;4.25;;
78336;SDS011;67610;51.588;7.002;2023-03-01T04:51:53;9.05;;;4.75;;
78336;SDS011;67610;51.588;7.002;2023-03-01T04:54:18;9.70;;;5.03;;
78336;SDS011;67610;51.588;7.002;2023-03-01T04:56:44;10.57;;;5.00;;
78336;SDS011;67610;51.588;7.002;2023-03-01T04:59:09;9.45;;;4.95;;
78336;SDS011;67610;51.588;7.002;2023-03-01T05:01:38;6.80;;;4.18;;
78336;SDS011;67610;51.588;7.002;2023-03-01T05:04:04;6.78;;;4.25;;
78336;SDS011;67610;51.588;7.002;2023-03-01T05:06:30;8.45;;;4.55;;
78336;SDS011;67610;51.588;7.002;2023-03-01T05:08:56;11.10;;;5.03;;
78336;SDS011;67610;51.588;7.002;2023-03-01T05:11:22;7.53;;;4.93;;
78336;SDS011;67610;51.588;7.002;2023-03-01T05:13:47;9.38;;;4.60;;
78336;SDS011;67610;51.588;7.002;2023-03-01T05:16:14;8.25;;;4.50;;
78336;SDS011;67610;51.588;7.002;2023-03-01T05:18:42;8.75;;;4.80;;
78336;SDS011;67610;51.588;7.002;2023-03-01T05:21:12;9.77;;;4.88;;
78336;SDS011;67610;51.588;7.002;2023-03-01T05:23:40;8.27;;;4.65;;
78336;SDS011;67610;51.588;7.002;2023-03-01T05:26:07;11.68;;;4.80;;
78336;SDS011;67610;51.588;7.002;2023-03-01T05:28:33;9.95;;;5.15;;
78336;SDS011;67610;51.588;7.002;2023-03-01T05:30:59;7.75;;;4.78;;
78336;SDS011;67610;51.588;7.002;2023-03-01T05:33:24;9.00;;;4.97;;
78336;SDS011;67610;51.588;7.002;2023-03-01T05:35:50;9.25;;;5.50;;
78336;SDS011;67610;51.588;7.002;2023-03-01T05:38:17;11.45;;;5.25;;
78336;SDS011;67610;51.588;7.002;2023-03-01T05:40:43;8.70;;;5.18;;
78336;SDS011;67610;51.588;7.002;2023-03-01T05:43:10;9.82;;;5.00;;
78336;SDS011;67610;51.588;7.002;2023-03-01T05:45:37;9.20;;;5.45;;
78336;SDS011;67610;51.588;7.002;2023-03-01T05:48:04;10.43;;;5.20;;
78336;SDS011;67610;51.588;7.002;2023-03-01T05:50:32;10.02;;;5.20;;
78336;SDS011;67610;51.588;7.002;2023-03-01T05:53:01;9.15;;;5.40;;
78336;SDS011;67610;51.588;7.002;2023-03-01T05:55:30;8.93;;;5.22;;
78336;SDS011;67610;51.588;7.002;2023-03-01T05:58:03;9.75;;;4.82;;
78336;SDS011;67610;51.588;7.002;2023-03-01T06:00:31;8.70;;;4.95;;
78336;SDS011;67610;51.588;7.002;2023-03-01T06:02:57;11.80;;;5.43;;
78336;SDS011;67610;51.588;7.002;2023-03-01T06:05:23;8.18;;;4.90;;
78336;SDS011;67610;51.588;7.002;2023-03-01T06:07:49;8.77;;;5.80;;
78336;SDS011;67610;51.588;7.002;2023-03-01T06:10:16;10.05;;;5.95;;
78336;SDS011;67610;51.588;7.002;2023-03-01T06:12:42;9.80;;;5.18;;
78336;SDS011;67610;51.588;7.002;2023-03-01T06:15:09;9.65;;;5.15;;
78336;SDS011;67610;51.588;7.002;2023-03-01T06:17:37;9.68;;;5.85;;
78336;SDS011;67610;51.588;7.002;2023-03-01T06:20:06;11.40;;;6.20;;
78336;SDS011;67610;51.588;7.002;2023-03-01T06:22:36;8.60;;;5.00;;
78336;SDS011;67610;51.588;7.002;2023-03-01T06:25:01;11.05;;;6.40;;
78336;SDS011;67610;51.588;7.002;2023-03-01T06:27:27;10.07;;;6.45;;
78336;SDS011;67610;51.588;7.002;2023-03-01T06:29:53;10.88;;;6.53;;
78336;SDS011;67610;51.588;7.002;2023-03-01T06:32:18;12.63;;;6.72;;
78336;SDS011;67610;51.588;7.002;2023-03-01T06:34:44;12.48;;;6.47;;
78336;SDS011;67610;51.588;7.002;2023-03-01T06:37:09;10.98;;;5.88;;
78336;SDS011;67610;51.588;7.002;2023-03-01T06:39:35;9.55;;;5.88;;
78336;SDS011;67610;51.588;7.002;2023-03-01T06:42:00;12.27;;;6.80;;
78336;SDS011;67610;51.588;7.002;2023-03-01T06:44:26;13.63;;;6.30;;
78336;SDS011;67610;51.588;7.002;2023-03-01T06:46:51;10.90;;;5.88;;
78336;SDS011;67610;51.588;7.002;2023-03-01T06:49:17;10.65;;;5.65;;
78336;SDS011;67610;51.588;7.002;2023-03-01T06:51:43;9.00;;;5.03;;
78336;SDS011;67610;51.588;7.002;2023-03-01T06:54:09;11.75;;;6.47;;
78336;SDS011;67610;51.588;7.002;2023-03-01T06:56:34;7.65;;;4.90;;
78336;SDS011;67610;51.588;7.002;2023-03-01T06:59:00;8.68;;;5.63;;
78336;SDS011;67610;51.588;7.002;2023-03-01T07:01:25;11.02;;;5.53;;
78336;SDS011;67610;51.588;7.002;2023-03-01T07:03:51;9.45;;;5.72;;
78336;SDS011;67610;51.588;7.002;2023-03-01T07:06:16;9.88;;;5.53;;
78336;SDS011;67610;51.588;7.002;2023-03-01T07:08:42;8.35;;;4.78;;
78336;SDS011;67610;51.588;7.002;2023-03-01T07:11:08;11.40;;;5.20;;
78336;SDS011;67610;51.588;7.002;2023-03-01T07:13:33;8.40;;;5.22;;
78336;SDS011;67610;51.588;7.002;2023-03-01T07:15:59;8.75;;;5.30;;
78336;SDS011;67610;51.588;7.002;2023-03-01T07:18:25;10.23;;;5.47;;
78336;SDS011;67610;51.588;7.002;2023-03-01T07:20:50;12.35;;;5.72;;
78336;SDS011;67610;51.588;7.002;2023-03-01T07:23:15;9.60;;;5.50;;
78336;SDS011;67610;51.588;7.002;2023-03-01T07:25:41;9.20;;;5.60;;
78336;SDS011;67610;51.588;7.002;2023-03-01T07:28:06;8.90;;;5.07;;
78336;SDS011;67610;51.588;7.002;2023-03-01T07:30:32;8.45;;;5.22;;
78336;SDS011;67610;51.588;7.002;2023-03-01T07:32:57;9.95;;;5.70;;
78336;SDS011;67610;51.588;7.002;2023-03-01T07:35:23;10.57;;;5.80;;
78336;SDS011;67610;51.588;7.002;2023-03-01T07:37:50;10.10;;;5.80;;
78336;SDS011;67610;51.588;7.002;2023-03-01T07:40:16;9.68;;;5.47;;
78336;SDS011;67610;51.588;7.002;2023-03-01T07:42:42;9.52;;;5.55;;
78336;SDS011;67610;51.588;7.002;2023-03-01T07:45:07;9.48;;;5.10;;
78336;SDS011;67610;51.588;7.002;2023-03-01T07:47:33;9.30;;;5.43;;
78336;SDS011;67610;51.588;7.002;2023-03-01T07:50:02;11.15;;;5.40;;
78336;SDS011;67610;51.588;7.002;2023-03-01T07:52:29;9.73;;;5.50;;
78336;SDS011;67610;51.588;7.002;2023-03-01T07:54:55;10.43;;;5.47;;
78336;SDS011;67610;51.588;7.002;2023-03-01T07:57:21;9.27;;;5.43;;
78336;SDS011;67610;51.588;7.002;2023-03-01T07:59:47;9.52;;;5.60;;
78336;SDS011;67610;51.588;7.002;2023-03-01T08:02:12;10.40;;;5.50;;
78336;SDS011;67610;51.588;7.002;2023-03-01T08:04:40;9.02;;;5.60;;
78336;SDS011;67610;51.588;7.002;2023-03-01T08:07:05;11.65;;;6.40;;
78336;SDS011;67610;51.588;7.002;2023-03-01T08:09:31;9.32;;;5.93;;
78336;SDS011;67610;51.588;7.002;2023-03-01T08:11:56;12.13;;;6.05;;
78336;SDS011;67610;51.588;7.002;2023-03-01T08:14:24;10.60;;;6.50;;
78336;SDS011;67610;51.588;7.002;2023-03-01T08:16:50;11.90;;;6.57;;
78336;SDS011;67610;51.588;7.002;2023-03-01T08:19:15;10.90;;;6.97;;
78336;SDS011;67610;51.588;7.002;2023-03-01T08:21:40;10.13;;;6.30;;
78336;SDS011;67610;51.588;7.002;2023-03-01T08:24:06;10.60;;;6.38;;
78336;SDS011;67610;51.588;7.002;2023-03-01T08:26:32;9.57;;;6.43;;
78336;SDS011;67610;51.588;7.002;2023-03-01T08:28:59;10.88;;;6.32;;
78336;SDS011;67610;51.588;7.002;2023-03-01T08:31:32;9.32;;;5.47;;
78336;SDS011;67610;51.588;7.002;2023-03-01T08:34:03;9.13;;;5.50;;
78336;SDS011;67610;51.588;7.002;2023-03-01T08:36:35;10.95;;;5.65;;
78336;SDS011;67610;51.588;7.002;2023-03-01T08:39:03;9.32;;;5.60;;
78336;SDS011;67610;51.588;7.002;2023-03-01T08:41:29;8.77;;;5.38;;
78336;SDS011;67610;51.588;7.002;2023-03-01T08:43:55;8.00;;;5.50;;
78336;SDS011;67610;51.588;7.002;2023-03-01T08:46:24;8.77;;;5.50;;
78336;SDS011;67610;51.588;7.002;2023-03-01T08:48:51;9.68;;;5.35;;
78336;SDS011;67610;51.588;7.002;2023-03-01T08:51:17;8.70;;;5.10;;
78336;SDS011;67610;51.588;7.002;2023-03-01T08:53:44;7.55;;;5.40;;
78336;SDS011;67610;51.588;7.002;2023-03-01T08:56:10;7.75;;;4.72;;
78336;SDS011;67610;51.588;7.002;2023-03-01T08:58:35;7.88;;;5.10;;
78336;SDS011;67610;51.588;7.002;2023-03-01T09:01:06;9.43;;;5.47;;
78336;SDS011;67610;51.588;7.002;2023-03-01T09:03:33;8.45;;;5.07;;
78336;SDS011;67610;51.588;7.002;2023-03-01T09:06:02;8.38;;;5.07;;
78336;SDS011;67610;51.588;7.002;2023-03-01T09:08:29;7.88;;;5.00;;
78336;SDS011;67610;51.588;7.002;2023-03-01T09:10:55;10.10;;;6.22;;
78336;SDS011;67610;51.588;7.002;2023-03-01T09:13:20;9.07;;;5.70;;
78336;SDS011;67610;51.588;7.002;2023-03-01T09:15:48;8.02;;;4.72;;
78336;SDS011;67610;51.588;7.002;2023-03-01T09:18:14;10.25;;;5.43;;
78336;SDS011;67610;51.588;7.002;2023-03-01T09:20:39;7.43;;;5.00;;
78336;SDS011;67610;51.588;7.002;2023-03-01T09:23:05;7.18;;;5.35;;
78336;SDS011;67610;51.588;7.002;2023-03-01T09:25:30;8.75;;;5.13;;
78336;SDS011;67610;51.588;7.002;2023-03-01T09:27:55;8.65;;;5.05;;
78336;SDS011;67610;51.588;7.002;2023-03-01T09:30:21;8.80;;;5.35;;
78336;SDS011;67610;51.588;7.002;2023-03-01T09:32:46;7.63;;;4.95;;
78336;SDS011;67610;51.588;7.002;2023-03-01T09:35:12;8.02;;;4.72;;
78336;SDS011;67610;51.588;7.002;2023-03-01T09:37:38;9.50;;;5.07;;
78336;SDS011;67610;51.588;7.002;2023-03-01T09:40:05;8.00;;;4.30;;
78336;SDS011;67610;51.588;7.002;2023-03-01T09:42:35;9.27;;;5.00;;
78336;SDS011;67610;51.588;7.002;2023-03-01T09:45:11;7.90;;;4.90;;
78336;SDS011;67610;51.588;7.002;2023-03-01T09:47:50;6.80;;;4.35;;
78336;SDS011;67610;51.588;7.002;2023-03-01T09:50:16;7.13;;;4.32;;
78336;SDS011;67610;51.588;7.002;2023-03-01T09:53:03;7.32;;;4.93;;
78336;SDS011;67610;51.588;7.002;2023-03-01T09:55:37;7.18;;;4.75;;
78336;SDS011;67610;51.588;7.002;2023-03-01T10:01:02;9.18;;;5.03;;
78336;SDS011;67610;51.588;7.002;2023-03-01T10:03:50;7.70;;;4.95;;
78336;SDS011;67610;51.588;7.002;2023-03-01T10:06:38;8.77;;;4.70;;
78336;SDS011;67610;51.588;7.002;2023-03-01T10:09:16;7.97;;;4.45;;
78336;SDS011;67610;51.588;7.002;2023-03-01T10:11:47;7.53;;;4.75;;
78336;SDS011;67610;51.588;7.002;2023-03-01T10:19:42;8.85;;;5.55;;
78336;SDS011;67610;51.588;7.002;2023-03-01T10:22:13;8.27;;;4.60;;
78336;SDS011;67610;51.588;7.002;2023-03-01T10:24:53;6.53;;;4.43;;
78336;SDS011;67610;51.588;7.002;2023-03-01T10:27:24;8.48;;;4.80;;
78336;SDS011;67610;51.588;7.002;2023-03-01T10:32:31;6.13;;;4.30;;
78336;SDS011;67610;51.588;7.002;2023-03-01T10:34:56;7.00;;;4.63;;
78336;SDS011;67610;51.588;7.002;2023-03-01T10:37:22;7.53;;;4.57;;
78336;SDS011;67610;51.588;7.002;2023-03-01T10:40:08;6.78;;;4.40;;
78336;SDS011;67610;51.588;7.002;2023-03-01T10:42:38;8.20;;;4.90;;
78336;SDS011;67610;51.588;7.002;2023-03-01T10:48:05;8.82;;;5.28;;
78336;SDS011;67610;51.588;7.002;2023-03-01T10:50:37;7.30;;;4.40;;
78336;SDS011;67610;51.588;7.002;2023-03-01T10:53:04;8.52;;;4.63;;
78336;SDS011;67610;51.588;7.002;2023-03-01T10:55:41;9.20;;;4.43;;
78336;SDS011;67610;51.588;7.002;2023-03-01T11:00:52;6.72;;;4.63;;
78336;SDS011;67610;51.588;7.002;2023-03-01T11:03:27;8.02;;;5.10;;
78336;SDS011;67610;51.588;7.002;2023-03-01T11:05:56;7.72;;;4.28;;
78336;SDS011;67610;51.588;7.002;2023-03-01T11:08:44;7.97;;;4.72;;
78336;SDS011;67610;51.588;7.002;2023-03-01T11:13:57;7.15;;;4.28;;
78336;SDS011;67610;51.588;7.002;2023-03-01T11:16:41;7.30;;;4.70;;
78336;SDS011;67610;51.588;7.002;2023-03-01T11:21:34;8.15;;;4.50;;
78336;SDS011;67610;51.588;7.002;2023-03-01T11:24:03;7.32;;;4.63;;
78336;SDS011;67610;51.588;7.002;2023-03-01T11:26:31;7.63;;;4.80;;
78336;SDS011;67610;51.588;7.002;2023-03-01T11:29:02;7.55;;;4.35;;
78336;SDS011;67610;51.588;7.002;2023-03-01T11:31:31;7.57;;;5.03;;
78336;SDS011;67610;51.588;7.002;2023-03-01T11:36:50;9.10;;;4.88;;
78336;SDS011;67610;51.588;7.002;2023-03-01T11:41:48;8.55;;;4.30;;
78336;SDS011;67610;51.588;7.002;2023-03-01T11:44:20;7.75;;;4.30;;
78336;SDS011;67610;51.588;7.002;2023-03-01T11:49:46;9.23;;;5.05;;
78336;SDS011;67610;51.588;7.002;2023-03-01T11:55:26;6.90;;;4.47;;
78336;SDS011;67610;51.588;7.002;2023-03-01T11:58:19;11.02;;;4.90;;
78336;SDS011;67610;51.588;7.002;2023-03-01T12:03:39;8.10;;;4.68;;
78336;SDS011;67610;51.588;7.002;2023-03-01T12:28:08;7.20;;;4.22;;
78336;SDS011;67610;51.588;7.002;2023-03-01T12:38:38;7.72;;;4.53;;
78336;SDS011;67610;51.588;7.002;2023-03-01T12:49:38;8.63;;;5.00;;
78336;SDS011;67610;51.588;7.002;2023-03-01T12:55:00;8.13;;;4.32;;
78336;SDS011;67610;51.588;7.002;2023-03-01T12:57:29;7.32;;;4.32;;
78336;SDS011;67610;51.588;7.002;2023-03-01T13:02:37;7.82;;;4.30;;
78336;SDS011;67610;51.588;7.002;2023-03-01T13:10:54;9.00;;;5.07;;
78336;SDS011;67610;51.588;7.002;2023-03-01T13:13:29;6.70;;;4.05;;
78336;SDS011;67610;51.588;7.002;2023-03-01T13:15:55;9.25;;;4.85;;
78336;SDS011;67610;51.588;7.002;2023-03-01T13:20:54;8.80;;;4.85;;
78336;SDS011;67610;51.588;7.002;2023-03-01T13:26:00;6.93;;;4.50;;
78336;SDS011;67610;51.588;7.002;2023-03-01T13:31:10;6.93;;;4.30;;
78336;SDS011;67610;51.588;7.002;2023-03-01T13:33:50;6.88;;;4.15;;
78336;SDS011;67610;51.588;7.002;2023-03-01T13:44:13;9.68;;;5.03;;
78336;SDS011;67610;51.588;7.002;2023-03-01T13:49:29;8.43;;;5.47;;
78336;SDS011;67610;51.588;7.002;2023-03-01T13:52:06;9.60;;;4.82;;
78336;SDS011;67610;51.588;7.002;2023-03-01T13:54:31;7.22;;;5.22;;
78336;SDS011;67610;51.588;7.002;2023-03-01T13:56:58;8.38;;;5.40;;
78336;SDS011;67610;51.588;7.002;2023-03-01T13:59:26;9.65;;;5.38;;
78336;SDS011;67610;51.588;7.002;2023-03-01T14:01:58;8.57;;;5.25;;
78336;SDS011;67610;51.588;7.002;2023-03-01T14:04:26;8.77;;;5.30;;
78336;SDS011;67610;51.588;7.002;2023-03-01T14:07:13;7.20;;;5.13;;
78336;SDS011;67610;51.588;7.002;2023-03-01T14:09:42;10.02;;;5.60;;
78336;SDS011;67610;51.588;7.002;2023-03-01T14:20:56;8.27;;;4.75;;
78336;SDS011;67610;51.588;7.002;2023-03-01T14:23:22;9.93;;;5.80;;
78336;SDS011;67610;51.588;7.002;2023-03-01T14:28:17;9.68;;;5.57;;
78336;SDS011;67610;51.588;7.002;2023-03-01T14:30:45;9.63;;;5.20;;
78336;SDS011;67610;51.588;7.002;2023-03-01T14:35:59;9.90;;;5.22;;
78336;SDS011;67610;51.588;7.002;2023-03-01T14:38:37;9.00;;;5.22;;
78336;SDS011;67610;51.588;7.002;2023-03-01T14:41:09;8.00;;;5.25;;
78336;SDS011;67610;51.588;7.002;2023-03-01T14:43:44;9.13;;;4.68;;
78336;SDS011;67610;51.588;7.002;2023-03-01T14:49:06;8.90;;;4.70;;
78336;SDS011;67610;51.588;7.002;2023-03-01T14:51:37;8.43;;;4.63;;
78336;SDS011;67610;51.588;7.002;2023-03-01T14:54:10;9.07;;;4.75;;
78336;SDS011;67610;51.588;7.002;2023-03-01T14:56:50;10.32;;;4.95;;
78336;SDS011;67610;51.588;7.002;2023-03-01T14:59:18;9.13;;;5.00;;
78336;SDS011;67610;51.588;7.002;2023-03-01T15:01:46;7.97;;;5.22;;
78336;SDS011;67610;51.588;7.002;2023-03-01T15:04:12;7.72;;;4.88;;
78336;SDS011;67610;51.588;7.002;2023-03-01T15:06:38;7.88;;;5.25;;
78336;SDS011;67610;51.588;7.002;2023-03-01T15:09:04;6.72;;;4.28;;
78336;SDS011;67610;51.588;7.002;2023-03-01T15:11:30;8.30;;;4.95;;
78336;SDS011;67610;51.588;7.002;2023-03-01T15:13:57;7.15;;;4.82;;
78336;SDS011;67610;51.588;7.002;2023-03-01T15:16:24;9.93;;;4.97;;
78336;SDS011;67610;51.588;7.002;2023-03-01T15:19:00;8.55;;;5.22;;
78336;SDS011;67610;51.588;7.002;2023-03-01T15:21:29;8.30;;;5.10;;
78336;SDS011;67610;51.588;7.002;2023-03-01T15:26:37;9.80;;;5.38;;
78336;SDS011;67610;51.588;7.002;2023-03-01T15:29:10;8.02;;;4.75;;
78336;SDS011;67610;51.588;7.002;2023-03-01T15:31:42;9.93;;;4.97;;
78336;SDS011;67610;51.588;7.002;2023-03-01T15:34:08;10.25;;;5.05;;
78336;SDS011;67610;51.588;7.002;2023-03-01T15:36:48;8.10;;;5.00;;
78336;SDS011;67610;51.588;7.002;2023-03-01T15:42:10;9.20;;;4.88;;
78336;SDS011;67610;51.588;7.002;2023-03-01T15:45:09;9.52;;;5.20;;
78336;SDS011;67610;51.588;7.002;2023-03-01T15:47:47;8.90;;;5.32;;
78336;SDS011;67610;51.588;7.002;2023-03-01T15:50:25;9.48;;;5.22;;
78336;SDS011;67610;51.588;7.002;2023-03-01T15:52:58;11.60;;;5.65;;
78336;SDS011;67610;51.588;7.002;2023-03-01T15:55:25;8.63;;;4.82;;
78336;SDS011;67610;51.588;7.002;2023-03-01T15:58:14;8.15;;;4.70;;
78336;SDS011;67610;51.588;7.002;2023-03-01T16:00:46;9.35;;;5.03;;
78336;SDS011;67610;51.588;7.002;2023-03-01T16:03:13;8.00;;;5.03;;
78336;SDS011;67610;51.588;7.002;2023-03-01T16:05:46;9.77;;;5.00;;
78336;SDS011;67610;51.588;7.002;2023-03-01T16:08:12;7.63;;;4.22;;
78336;SDS011;67610;51.588;7.002;2023-03-01T16:10:38;8.55;;;5.00;;
78336;SDS011;67610;51.588;7.002;2023-03-01T16:13:05;10.10;;;5.55;;
78336;SDS011;67610;51.588;7.002;2023-03-01T16:15:31;9.10;;;5.20;;
78336;SDS011;67610;51.588;7.002;2023-03-01T16:17:59;8.40;;;5.10;;
78336;SDS011;67610;51.588;7.002;2023-03-01T16:20:25;8.45;;;4.85;;
78336;SDS011;67610;51.588;7.002;2023-03-01T16:22:51;8.27;;;4.47;;
78336;SDS011;67610;51.588;7.002;2023-03-01T16:25:17;7.63;;;4.20;;
78336;SDS011;67610;51.588;7.002;2023-03-01T16:27:45;8.50;;;4.78;;
78336;SDS011;67610;51.588;7.002;2023-03-01T16:30:12;8.90;;;4.78;;
78336;SDS011;67610;51.588;7.002;2023-03-01T16:32:39;7.30;;;4.57;;
78336;SDS011;67610;51.588;7.002;2023-03-01T16:35:06;7.40;;;4.43;;
78336;SDS011;67610;51.588;7.002;2023-03-01T16:37:34;7.18;;;4.20;;
78336;SDS011;67610;51.588;7.002;2023-03-01T16:40:00;9.38;;;4.50;;
78336;SDS011;67610;51.588;7.002;2023-03-01T16:42:25;7.95;;;4.10;;
78336;SDS011;67610;51.588;7.002;2023-03-01T16:44:54;7.28;;;4.13;;
78336;SDS011;67610;51.588;7.002;2023-03-01T16:47:21;6.97;;;4.20;;
78336;SDS011;67610;51.588;7.002;2023-03-01T16:49:47;10.10;;;5.50;;
78336;SDS011;67610;51.588;7.002;2023-03-01T16:52:12;7.53;;;4.75;;
78336;SDS011;67610;51.588;7.002;2023-03-01T16:54:38;6.63;;;3.90;;
78336;SDS011;67610;51.588;7.002;2023-03-01T16:57:03;5.82;;;3.70;;
78336;SDS011;67610;51.588;7.002;2023-03-01T16:59:29;9.13;;;4.35;;
78336;SDS011;67610;51.588;7.002;2023-03-01T17:01:55;10.57;;;4.78;;
78336;SDS011;67610;51.588;7.002;2023-03-01T17:04:20;8.05;;;4.30;;
78336;SDS011;67610;51.588;7.002;2023-03-01T17:06:45;7.63;;;4.03;;
78336;SDS011;67610;51.588;7.002;2023-03-01T17:09:13;7.15;;;3.90;;
78336;SDS011;67610;51.588;7.002;2023-03-01T17:11:39;8.68;;;5.03;;
78336;SDS011;67610;51.588;7.002;2023-03-01T17:14:04;8.18;;;4.03;;
78336;SDS011;67610;51.588;7.002;2023-03-01T17:16:30;7.80;;;4.43;;
78336;SDS011;67610;51.588;7.002;2023-03-01T17:18:55;8.65;;;4.40;;
78336;SDS011;67610;51.588;7.002;2023-03-01T17:21:20;7.93;;;4.05;;
78336;SDS011;67610;51.588;7.002;2023-03-01T17:23:46;7.78;;;4.75;;